createdAt,value
2018-10-21T00:02:19.841Z,20.90
2018-10-21T00:05:23.933Z,24.87
2018-10-21T00:08:28.067Z,21.93
2018-10-21T00:11:32.210Z,24.43
2018-10-21T00:14:36.363Z,22.00
2018-10-21T00:17:40.494Z,26.60
2018-10-21T00:20:44.682Z,24.30
2018-10-21T00:23:48.808Z,24.33
2018-10-21T00:26:52.958Z,27.27
2018-10-21T00:29:57.121Z,25.30
2018-10-21T00:33:01.301Z,22.93
2018-10-21T00:36:05.904Z,23.77
2018-10-21T00:39:12.322Z,22.33
2018-10-21T00:42:16.378Z,24.27
2018-10-21T00:45:20.583Z,26.00
2018-10-21T00:48:24.687Z,28.20
2018-10-21T00:51:28.774Z,28.67
2018-10-21T00:54:32.879Z,30.17
2018-10-21T00:57:36.974Z,26.40
2018-10-21T01:00:41.077Z,30.43
2018-10-21T01:03:45.162Z,28.10
2018-10-21T01:06:49.279Z,27.33
2018-10-21T01:09:53.381Z,27.70
2018-10-21T01:12:57.481Z,28.33
2018-10-21T01:16:01.743Z,28.43
2018-10-21T01:19:06.274Z,26.73
2018-10-21T01:22:10.384Z,28.83
2018-10-21T01:25:14.503Z,30.07
2018-10-21T01:28:18.599Z,28.47
2018-10-21T01:31:22.703Z,25.67
2018-10-21T01:34:27.002Z,28.00
2018-10-21T01:37:31.107Z,24.90
2018-10-21T01:40:37.187Z,25.20
2018-10-21T01:43:41.291Z,27.27
2018-10-21T01:46:45.386Z,23.57
2018-10-21T01:49:49.539Z,26.87
2018-10-21T01:52:54.375Z,23.53
2018-10-21T01:55:58.518Z,28.53
2018-10-21T01:59:02.663Z,27.93
2018-10-21T02:02:06.811Z,25.80
2018-10-21T02:05:10.956Z,26.10
2018-10-21T02:08:15.093Z,27.10
2018-10-21T02:11:19.225Z,26.23
2018-10-21T02:14:23.367Z,24.97
2018-10-21T02:17:27.525Z,31.00
2018-10-21T02:20:31.670Z,26.67
2018-10-21T02:23:35.881Z,25.70
2018-10-21T02:26:40.048Z,27.87
2018-10-21T02:29:44.482Z,26.17
2018-10-21T02:32:49.325Z,28.87
2018-10-21T02:35:53.463Z,26.97
2018-10-21T02:38:57.654Z,27.80
2018-10-21T02:42:01.744Z,27.43
2018-10-21T02:45:06.023Z,25.60
2018-10-21T02:48:10.130Z,30.70
2018-10-21T02:51:14.396Z,26.03
2018-10-21T02:54:22.639Z,26.97
2018-10-21T02:57:26.771Z,26.60
2018-10-21T03:00:30.916Z,26.13
2018-10-21T03:03:35.060Z,24.57
2018-10-21T03:06:39.198Z,29.90
2018-10-21T03:09:43.328Z,25.07
2018-10-21T03:12:47.466Z,29.20
2018-10-21T03:15:51.596Z,31.17
2018-10-21T03:18:55.752Z,28.53
2018-10-21T03:21:59.891Z,27.50
2018-10-21T03:25:04.043Z,26.90
2018-10-21T03:28:08.186Z,30.67
2018-10-21T03:31:12.390Z,30.50
2018-10-21T03:34:16.514Z,28.83
2018-10-21T03:37:20.659Z,29.53
2018-10-21T03:40:24.807Z,30.43
2018-10-21T03:43:28.956Z,27.93
2018-10-21T03:46:33.086Z,29.60
2018-10-21T03:49:37.242Z,29.30
2018-10-21T03:52:41.389Z,33.00
2018-10-21T03:55:45.561Z,26.33
2018-10-21T03:58:49.702Z,26.40
2018-10-21T04:01:53.850Z,27.70
2018-10-21T04:04:57.997Z,28.87
2018-10-21T04:08:02.131Z,26.97
2018-10-21T04:11:06.390Z,28.90
2018-10-21T04:14:10.523Z,29.90
2018-10-21T04:17:14.662Z,28.83
2018-10-21T04:20:18.785Z,28.37
2018-10-21T04:23:22.925Z,28.50
2018-10-21T04:26:27.078Z,27.47
2018-10-21T04:29:31.227Z,29.23
2018-10-21T04:32:36.350Z,32.33
2018-10-21T04:35:40.570Z,29.23
2018-10-21T04:40:09.183Z,30.70
2018-10-21T04:43:13.385Z,25.40
2018-10-21T04:46:17.611Z,26.27
2018-10-21T04:49:21.697Z,29.77
2018-10-21T04:52:26.190Z,26.93
2018-10-21T04:55:30.345Z,25.83
2018-10-21T04:58:34.474Z,29.37
2018-10-21T05:01:38.622Z,32.10
2018-10-21T05:04:42.767Z,27.70
2018-10-21T05:07:46.927Z,31.47
2018-10-21T05:10:51.074Z,31.60
2018-10-21T05:13:55.222Z,30.87
2018-10-21T05:16:59.374Z,32.20
2018-10-21T05:20:03.519Z,28.73
2018-10-21T05:23:07.661Z,27.83
2018-10-21T05:26:11.794Z,29.43
2018-10-21T05:29:15.938Z,26.87
2018-10-21T05:32:20.096Z,27.60
2018-10-21T05:35:24.233Z,30.33
2018-10-21T05:38:28.370Z,26.97
2018-10-21T05:41:32.499Z,27.00
2018-10-21T05:44:36.645Z,25.70
2018-10-21T05:47:41.207Z,29.87
2018-10-21T05:50:45.372Z,32.27
2018-10-21T05:53:49.518Z,31.90
2018-10-21T05:56:53.646Z,27.57
2018-10-21T05:59:57.850Z,29.27
2018-10-21T06:03:02.155Z,29.87
2018-10-21T06:06:06.190Z,26.40
2018-10-21T06:09:11.870Z,25.83
2018-10-21T06:12:16.031Z,26.30
2018-10-21T06:15:20.179Z,25.77
2018-10-21T06:18:26.582Z,26.07
2018-10-21T06:21:30.730Z,27.80
2018-10-21T06:24:34.885Z,27.33
2018-10-21T06:27:39.844Z,28.03
2018-10-21T06:30:43.978Z,25.33
2018-10-21T06:33:48.196Z,27.47
2018-10-21T06:36:52.380Z,28.43
2018-10-21T06:39:56.522Z,30.67
2018-10-21T06:43:00.658Z,30.07
2018-10-21T06:46:04.800Z,26.90
2018-10-21T06:49:09.020Z,31.10
2018-10-21T06:52:13.440Z,30.07
2018-10-21T06:55:17.584Z,45.73
2018-10-21T06:58:21.734Z,38.10
2018-10-21T07:01:25.890Z,50.57
2018-10-21T07:04:30.062Z,74.40
2018-10-21T07:07:34.190Z,45.83
2018-10-21T07:10:38.350Z,54.00
2018-10-21T07:13:42.717Z,53.80
2018-10-21T07:16:46.925Z,52.70
2018-10-21T07:19:51.022Z,50.03
2018-10-21T07:22:55.158Z,49.77
2018-10-21T07:25:59.494Z,56.87
2018-10-21T07:29:03.638Z,60.03
2018-10-21T07:32:07.794Z,63.07
2018-10-21T07:35:13.587Z,55.90
2018-10-21T07:38:17.721Z,55.67
2018-10-21T07:41:21.866Z,53.80
2018-10-21T07:44:26.020Z,48.53
2018-10-21T07:47:30.162Z,45.37
2018-10-21T07:50:34.306Z,43.73
2018-10-21T07:53:38.439Z,49.30
2018-10-21T07:56:42.581Z,50.53
2018-10-21T07:59:47.732Z,50.30
2018-10-21T08:02:51.870Z,48.80
2018-10-21T08:06:26.387Z,49.97
2018-10-21T08:09:30.529Z,53.90
2018-10-21T08:12:34.673Z,54.70
2018-10-21T08:15:39.191Z,49.43
2018-10-21T08:18:43.313Z,46.63
2018-10-21T08:21:47.450Z,52.37
2018-10-21T08:24:51.610Z,45.83
2018-10-21T08:27:55.769Z,47.70
2018-10-21T08:30:59.911Z,48.50
2018-10-21T08:34:04.100Z,49.67
2018-10-21T08:37:08.206Z,47.73
2018-10-21T08:40:12.415Z,53.47
2018-10-21T08:43:16.486Z,44.63
2018-10-21T08:46:20.731Z,46.20
2018-10-21T08:49:24.826Z,55.43
2018-10-21T08:52:28.949Z,49.90
2018-10-21T08:55:33.097Z,45.43
2018-10-21T08:58:37.250Z,55.17
2018-10-21T09:01:41.402Z,47.03
2018-10-21T09:04:45.562Z,46.10
2018-10-21T09:07:49.784Z,44.53
2018-10-21T09:10:53.951Z,45.50
2018-10-21T09:13:58.162Z,43.70
2018-10-21T09:17:02.269Z,47.97
2018-10-21T09:20:09.362Z,46.73
2018-10-21T09:23:13.506Z,43.33
2018-10-21T09:26:17.693Z,47.23
2018-10-21T09:29:21.838Z,43.93
2018-10-21T09:32:25.990Z,38.83
2018-10-21T09:35:30.142Z,34.87
2018-10-21T09:38:34.314Z,33.10
2018-10-21T09:41:38.477Z,34.97
2018-10-21T09:44:42.619Z,33.83
2018-10-21T09:47:46.861Z,28.43
2018-10-21T09:50:50.989Z,30.40
2018-10-21T09:53:55.140Z,31.27
2018-10-21T09:56:59.325Z,29.80
2018-10-21T10:00:03.455Z,28.10
2018-10-21T10:03:08.863Z,32.40
2018-10-21T10:06:13.021Z,23.97
2018-10-21T10:09:17.175Z,23.53
2018-10-21T10:12:21.334Z,23.60
2018-10-21T10:15:25.480Z,23.27
2018-10-21T10:18:29.680Z,19.73
2018-10-21T10:21:33.854Z,20.37
2018-10-21T10:24:38.006Z,23.57
2018-10-21T10:27:42.234Z,19.80
2018-10-21T10:30:46.403Z,18.60
2018-10-21T10:33:50.545Z,17.53
2018-10-21T10:36:54.750Z,17.87
2018-10-21T10:39:58.904Z,19.77
2018-10-21T10:43:03.024Z,19.17
2018-10-21T10:46:07.216Z,16.03
2018-10-21T10:49:11.375Z,18.43
2018-10-21T10:52:15.574Z,17.90
2018-10-21T10:55:19.642Z,16.60
2018-10-21T10:58:23.805Z,17.03
2018-10-21T11:01:27.938Z,14.33
2018-10-21T11:04:32.074Z,15.73
2018-10-21T11:07:36.226Z,14.83
2018-10-21T11:10:40.468Z,13.40
2018-10-21T11:13:44.602Z,11.43
2018-10-21T11:16:48.813Z,16.10
2018-10-21T11:19:52.938Z,9.57
2018-10-21T11:22:57.251Z,14.30
2018-10-21T11:26:01.527Z,8.63
2018-10-21T11:29:05.914Z,11.53
2018-10-21T11:32:10.110Z,10.93
2018-10-21T11:35:14.198Z,10.43
2018-10-21T11:38:18.444Z,13.17
2018-10-21T11:41:22.833Z,9.70
2018-10-21T11:44:26.958Z,11.25
2018-10-21T11:47:31.098Z,10.87
2018-10-21T11:50:35.259Z,10.27
2018-10-21T11:53:39.401Z,9.75
2018-10-21T11:56:43.556Z,9.73
2018-10-21T11:59:47.675Z,9.75
2018-10-21T12:02:51.812Z,9.75
2018-10-21T12:05:56.006Z,10.15
2018-10-21T12:09:00.188Z,11.18
2018-10-21T12:12:04.331Z,7.15
2018-10-21T12:15:08.570Z,6.55
2018-10-21T12:18:12.769Z,6.22
2018-10-21T12:21:17.022Z,7.33
2018-10-21T12:24:21.258Z,7.85
2018-10-21T12:27:26.124Z,6.83
2018-10-21T12:30:30.270Z,6.97
2018-10-21T12:33:38.660Z,6.92
2018-10-21T12:36:42.815Z,6.85
2018-10-21T12:39:47.119Z,7.83
2018-10-21T12:42:51.293Z,5.95
2018-10-21T12:45:55.522Z,8.73
2018-10-21T12:48:59.732Z,6.50
2018-10-21T12:52:03.855Z,7.63
2018-10-21T12:55:09.153Z,11.40
2018-10-21T12:58:13.382Z,8.80
2018-10-21T13:01:17.554Z,6.90
2018-10-21T13:04:21.602Z,4.27
2018-10-21T13:07:25.757Z,5.47
2018-10-21T13:10:29.909Z,5.50
2018-10-21T13:13:34.067Z,4.35
2018-10-21T13:16:38.252Z,3.87
2018-10-21T13:19:43.351Z,5.95
2018-10-21T13:22:47.425Z,3.55
2018-10-21T13:25:51.598Z,3.85
2018-10-21T13:28:55.834Z,6.30
2018-10-21T13:31:59.914Z,3.30
2018-10-21T13:35:04.058Z,3.15
2018-10-21T13:38:08.259Z,4.53
2018-10-21T13:41:12.430Z,3.87
2018-10-21T13:44:16.631Z,3.67
2018-10-21T13:47:20.840Z,3.05
2018-10-21T13:50:25.076Z,6.53
2018-10-21T13:53:29.322Z,9.20
2018-10-21T13:56:33.417Z,4.70
2018-10-21T13:59:37.563Z,4.42
2018-10-21T14:02:41.704Z,3.17
2018-10-21T14:05:45.841Z,1.95
2018-10-21T14:08:50.079Z,4.65
2018-10-21T14:11:54.258Z,5.58
2018-10-21T14:14:58.869Z,4.15
2018-10-21T14:18:02.955Z,2.67
2018-10-21T14:21:07.075Z,4.40
2018-10-21T14:24:11.319Z,2.75
2018-10-21T14:27:15.374Z,3.45
2018-10-21T14:30:19.559Z,4.53
2018-10-21T14:33:23.753Z,3.05
2018-10-21T14:36:27.898Z,6.50
2018-10-21T14:39:32.055Z,4.07
2018-10-21T14:42:36.251Z,2.77
2018-10-21T14:45:40.467Z,4.53
2018-10-21T14:48:44.590Z,4.40
2018-10-21T14:51:48.755Z,3.00
2018-10-21T14:54:52.891Z,3.97
2018-10-21T14:57:57.064Z,3.80
2018-10-21T15:01:01.198Z,3.07
2018-10-21T15:04:05.692Z,4.00
2018-10-21T15:07:09.826Z,3.20
2018-10-21T15:10:14.009Z,2.33
2018-10-21T15:13:18.210Z,5.60
2018-10-21T15:16:22.350Z,7.30
2018-10-21T15:19:26.513Z,3.50
2018-10-21T15:22:30.678Z,4.33
2018-10-21T15:25:34.824Z,6.57
2018-10-21T15:28:38.953Z,4.00
2018-10-21T15:31:43.077Z,3.77
2018-10-21T15:34:47.399Z,2.80
2018-10-21T15:37:51.396Z,2.83
2018-10-21T15:40:55.566Z,4.80
2018-10-21T15:43:59.789Z,5.17
2018-10-21T15:47:03.889Z,16.73
2018-10-21T15:50:08.479Z,12.87
2018-10-21T15:53:12.572Z,16.77
2018-10-21T15:56:16.837Z,8.47
2018-10-21T15:59:20.875Z,4.77
2018-10-21T16:02:25.139Z,2.97
2018-10-21T16:05:29.230Z,2.73
2018-10-21T16:08:33.367Z,3.43
2018-10-21T16:11:37.511Z,2.53
2018-10-21T16:14:41.669Z,4.30
2018-10-21T16:17:46.495Z,3.33
2018-10-21T16:20:50.765Z,2.20
2018-10-21T16:23:54.918Z,2.17
2018-10-21T16:26:59.199Z,5.00
2018-10-21T16:30:03.348Z,1.97
2018-10-21T16:33:07.478Z,2.80
2018-10-21T16:36:11.649Z,3.07
2018-10-21T16:39:15.930Z,9.07
2018-10-21T16:42:19.994Z,5.30
2018-10-21T16:45:24.205Z,6.47
2018-10-21T16:48:28.345Z,6.17
2018-10-21T16:51:32.601Z,5.63
2018-10-21T16:54:36.725Z,4.17
2018-10-21T16:57:40.901Z,5.73
2018-10-21T17:00:45.316Z,5.23
2018-10-21T17:03:49.541Z,3.27
2018-10-21T17:06:53.669Z,8.37
2018-10-21T17:09:58.387Z,3.27
2018-10-21T17:13:02.203Z,3.80
2018-10-21T17:16:07.977Z,2.60
2018-10-21T17:19:12.122Z,5.13
2018-10-21T17:22:16.361Z,5.67
2018-10-21T17:25:20.429Z,2.87
2018-10-21T17:28:24.699Z,2.60
2018-10-21T17:31:28.898Z,2.60
2018-10-21T17:34:33.115Z,4.47
2018-10-21T17:37:37.332Z,3.50
2018-10-21T17:40:41.579Z,3.33
2018-10-21T17:43:45.689Z,3.13
2018-10-21T17:46:49.858Z,4.67
2018-10-21T17:49:54.118Z,4.07
2018-10-21T17:52:58.345Z,4.57
2018-10-21T17:56:02.526Z,3.17
2018-10-21T17:59:06.792Z,3.57
2018-10-21T18:02:10.970Z,3.83
2018-10-21T18:05:15.479Z,8.10
2018-10-21T18:08:19.746Z,4.70
2018-10-21T18:11:24.160Z,5.93
2018-10-21T18:14:28.351Z,4.50
2018-10-21T18:17:32.518Z,4.90
2018-10-21T18:20:36.791Z,4.73
2018-10-21T18:23:40.925Z,3.93
2018-10-21T18:26:45.202Z,4.77
2018-10-21T18:29:49.405Z,6.73
2018-10-21T18:32:53.619Z,3.73
2018-10-21T18:35:57.729Z,4.23
2018-10-21T18:39:01.959Z,4.67
2018-10-21T18:42:06.462Z,6.13
2018-10-21T18:45:12.686Z,5.73
2018-10-21T18:48:16.889Z,3.43
2018-10-21T18:51:20.961Z,5.10
2018-10-21T18:54:25.123Z,3.93
2018-10-21T18:57:29.264Z,3.50
2018-10-21T19:00:33.429Z,3.87
2018-10-21T19:03:37.608Z,5.13
2018-10-21T19:06:41.754Z,4.20
2018-10-21T19:09:45.892Z,6.37
2018-10-21T19:13:00.046Z,4.03
2018-10-21T19:15:54.270Z,6.60
2018-10-21T19:18:58.622Z,4.27
2018-10-21T19:22:02.862Z,4.07
2018-10-21T19:25:09.132Z,4.90
2018-10-21T19:28:13.303Z,3.83
2018-10-21T19:31:17.525Z,4.37
2018-10-21T19:34:22.100Z,6.23
2018-10-21T19:37:26.106Z,4.87
2018-10-21T19:40:30.297Z,2.90
2018-10-21T19:43:34.483Z,7.83
2018-10-21T19:46:38.587Z,4.43
2018-10-21T19:49:42.738Z,5.80
2018-10-21T19:52:46.910Z,4.63
2018-10-21T19:55:51.062Z,4.37
2018-10-21T19:58:55.219Z,5.23
2018-10-21T20:01:59.392Z,5.27
2018-10-21T20:05:03.514Z,6.77
2018-10-21T20:08:09.190Z,4.93
2018-10-21T20:11:14.369Z,6.23
2018-10-21T20:14:19.593Z,4.73
2018-10-21T20:17:24.932Z,5.67
2018-10-21T20:20:30.058Z,3.77
2018-10-21T20:23:35.317Z,6.57
2018-10-21T20:26:39.475Z,6.47
2018-10-21T20:29:43.633Z,6.20
2018-10-21T20:32:47.932Z,9.27
2018-10-21T20:35:52.067Z,5.10
2018-10-21T20:38:56.307Z,6.57
2018-10-21T20:42:00.509Z,7.17
2018-10-21T20:45:04.603Z,4.40
2018-10-21T20:48:08.846Z,5.27
2018-10-21T20:51:12.924Z,6.30
2018-10-21T20:54:17.368Z,7.50
2018-10-21T20:57:21.670Z,8.13
2018-10-21T21:00:25.826Z,7.07
2018-10-21T21:03:30.137Z,7.93
2018-10-21T21:06:34.283Z,6.53
2018-10-21T21:09:39.387Z,4.43
2018-10-21T21:12:43.575Z,5.13
2018-10-21T21:15:47.805Z,8.00
2018-10-21T21:18:52.394Z,6.50
2018-10-21T21:21:56.800Z,9.07
2018-10-21T21:25:01.395Z,5.60
2018-10-21T21:28:07.805Z,8.30
2018-10-21T21:31:12.097Z,5.47
2018-10-21T21:34:16.924Z,5.70
2018-10-21T21:37:20.975Z,7.27
2018-10-21T21:40:25.226Z,6.67
2018-10-21T21:43:29.746Z,5.80
2018-10-21T21:46:34.041Z,8.27
2018-10-21T21:49:38.174Z,7.97
2018-10-21T21:52:42.311Z,5.70
2018-10-21T21:55:46.474Z,5.83
2018-10-21T21:58:50.683Z,9.10
2018-10-21T22:01:54.950Z,6.77
2018-10-21T22:04:59.182Z,10.17
2018-10-21T22:08:03.362Z,10.50
2018-10-21T22:11:07.458Z,11.23
2018-10-21T22:14:11.827Z,6.77
2018-10-21T22:17:15.984Z,5.77
2018-10-21T22:20:20.126Z,8.87
2018-10-21T22:23:24.368Z,6.40
2018-10-21T22:26:28.507Z,7.97
2018-10-21T22:29:32.647Z,7.97
2018-10-21T22:32:36.852Z,8.53
2018-10-21T22:35:40.973Z,7.17
2018-10-21T22:38:45.111Z,8.10
2018-10-21T22:41:49.261Z,9.37
2018-10-21T22:44:53.400Z,9.00
2018-10-21T22:47:57.537Z,8.70
2018-10-21T22:51:01.678Z,8.83
2018-10-21T22:54:05.949Z,7.77
2018-10-21T22:57:15.433Z,6.90
2018-10-21T23:00:19.614Z,11.33
2018-10-21T23:03:23.712Z,8.23
2018-10-21T23:06:27.851Z,8.83
2018-10-21T23:09:31.986Z,8.87
2018-10-21T23:12:36.115Z,9.60
2018-10-21T23:15:40.242Z,9.70
2018-10-21T23:18:44.469Z,9.53
2018-10-21T23:21:48.522Z,6.97
2018-10-21T23:24:52.649Z,7.17
2018-10-21T23:27:56.831Z,7.77
2018-10-21T23:31:00.942Z,12.77
2018-10-21T23:34:05.579Z,8.67
2018-10-21T23:37:09.654Z,8.67
2018-10-21T23:40:13.916Z,10.30
2018-10-21T23:43:17.950Z,8.37
2018-10-21T23:46:28.645Z,7.73
2018-10-21T23:49:32.792Z,7.90
2018-10-21T23:52:36.942Z,8.77
2018-10-21T23:55:41.078Z,7.20
2018-10-21T23:58:45.225Z,8.17
